sensor_id;sensor_type;location;lat;lon;timestamp;P1;durP1;ratioP1;P2;durP2;ratioP2
27839;SDS011;15207;42.182;24.308;2022-08-21T00:00:40;20.30;;;6.60;;
27839;SDS011;15207;42.182;24.308;2022-08-21T00:03:07;13.45;;;6.05;;
27839;SDS011;15207;42.182;24.308;2022-08-21T00:05:36;12.90;;;5.90;;
27839;SDS011;15207;42.182;24.308;2022-08-21T00:10:28;24.13;;;7.67;;
27839;SDS011;15207;42.182;24.308;2022-08-21T00:12:54;16.90;;;6.10;;
27839;SDS011;15207;42.182;24.308;2022-08-21T00:15:21;15.43;;;6.40;;
27839;SDS011;15207;42.182;24.308;2022-08-21T00:17:51;16.77;;;5.65;;
27839;SDS011;15207;42.182;24.308;2022-08-21T00:20:18;11.52;;;5.72;;
27839;SDS011;15207;42.182;24.308;2022-08-21T00:22:44;11.40;;;6.00;;
27839;SDS011;15207;42.182;24.308;2022-08-21T00:25:10;11.18;;;6.50;;
27839;SDS011;15207;42.182;24.308;2022-08-21T00:27:37;13.90;;;6.68;;
27839;SDS011;15207;42.182;24.308;2022-08-21T00:30:04;16.98;;;7.22;;
27839;SDS011;15207;42.182;24.308;2022-08-21T00:34:56;16.25;;;7.45;;
27839;SDS011;15207;42.182;24.308;2022-08-21T00:39:48;14.45;;;6.72;;
27839;SDS011;15207;42.182;24.308;2022-08-21T00:42:14;24.98;;;6.93;;
27839;SDS011;15207;42.182;24.308;2022-08-21T00:44:41;12.98;;;6.50;;
27839;SDS011;15207;42.182;24.308;2022-08-21T00:49:33;12.00;;;6.78;;
27839;SDS011;15207;42.182;24.308;2022-08-21T00:51:59;17.90;;;7.18;;
27839;SDS011;15207;42.182;24.308;2022-08-21T00:54:27;16.80;;;7.40;;
27839;SDS011;15207;42.182;24.308;2022-08-21T00:56:56;19.30;;;7.80;;
27839;SDS011;15207;42.182;24.308;2022-08-21T00:59:25;16.50;;;7.75;;
27839;SDS011;15207;42.182;24.308;2022-08-21T01:06:44;20.70;;;7.65;;
27839;SDS011;15207;42.182;24.308;2022-08-21T01:09:10;17.00;;;8.20;;
27839;SDS011;15207;42.182;24.308;2022-08-21T01:11:36;16.90;;;8.80;;
27839;SDS011;15207;42.182;24.308;2022-08-21T01:14:03;14.90;;;7.45;;
27839;SDS011;15207;42.182;24.308;2022-08-21T01:16:28;19.20;;;7.57;;
27839;SDS011;15207;42.182;24.308;2022-08-21T01:18:54;19.80;;;7.97;;
27839;SDS011;15207;42.182;24.308;2022-08-21T01:21:21;14.60;;;8.43;;
27839;SDS011;15207;42.182;24.308;2022-08-21T01:26:18;16.85;;;8.00;;
27839;SDS011;15207;42.182;24.308;2022-08-21T01:28:52;18.60;;;8.10;;
27839;SDS011;15207;42.182;24.308;2022-08-21T01:31:23;18.30;;;8.05;;
27839;SDS011;15207;42.182;24.308;2022-08-21T01:33:50;15.87;;;8.53;;
27839;SDS011;15207;42.182;24.308;2022-08-21T01:36:16;18.00;;;7.97;;
27839;SDS011;15207;42.182;24.308;2022-08-21T01:38:42;18.20;;;7.90;;
27839;SDS011;15207;42.182;24.308;2022-08-21T01:41:07;18.90;;;8.10;;
27839;SDS011;15207;42.182;24.308;2022-08-21T01:43:33;19.52;;;8.23;;
27839;SDS011;15207;42.182;24.308;2022-08-21T01:45:59;19.50;;;7.30;;
27839;SDS011;15207;42.182;24.308;2022-08-21T01:48:24;12.70;;;7.25;;
27839;SDS011;15207;42.182;24.308;2022-08-21T01:50:50;21.08;;;7.15;;
27839;SDS011;15207;42.182;24.308;2022-08-21T01:55:43;29.17;;;11.87;;
27839;SDS011;15207;42.182;24.308;2022-08-21T01:58:09;21.42;;;8.10;;
27839;SDS011;15207;42.182;24.308;2022-08-21T02:00:34;24.13;;;9.35;;
27839;SDS011;15207;42.182;24.308;2022-08-21T02:03:00;21.00;;;9.90;;
27839;SDS011;15207;42.182;24.308;2022-08-21T02:05:26;20.05;;;10.55;;
27839;SDS011;15207;42.182;24.308;2022-08-21T02:07:53;19.90;;;9.90;;
27839;SDS011;15207;42.182;24.308;2022-08-21T02:10:24;23.17;;;10.23;;
27839;SDS011;15207;42.182;24.308;2022-08-21T02:15:17;24.05;;;10.55;;
27839;SDS011;15207;42.182;24.308;2022-08-21T02:17:48;23.15;;;11.55;;
27839;SDS011;15207;42.182;24.308;2022-08-21T02:20:24;26.90;;;10.70;;
27839;SDS011;15207;42.182;24.308;2022-08-21T02:22:51;29.70;;;11.10;;
27839;SDS011;15207;42.182;24.308;2022-08-21T02:25:18;21.00;;;10.05;;
27839;SDS011;15207;42.182;24.308;2022-08-21T02:27:45;24.40;;;10.70;;
27839;SDS011;15207;42.182;24.308;2022-08-21T02:30:29;19.10;;;10.10;;
27839;SDS011;15207;42.182;24.308;2022-08-21T02:32:56;25.50;;;9.10;;
27839;SDS011;15207;42.182;24.308;2022-08-21T02:35:22;19.02;;;9.20;;
27839;SDS011;15207;42.182;24.308;2022-08-21T02:37:51;20.20;;;9.23;;
27839;SDS011;15207;42.182;24.308;2022-08-21T02:40:23;17.63;;;9.47;;
27839;SDS011;15207;42.182;24.308;2022-08-21T02:42:51;21.70;;;8.95;;
27839;SDS011;15207;42.182;24.308;2022-08-21T02:45:17;17.10;;;8.90;;
27839;SDS011;15207;42.182;24.308;2022-08-21T02:47:50;23.85;;;9.75;;
27839;SDS011;15207;42.182;24.308;2022-08-21T02:50:18;20.20;;;10.00;;
27839;SDS011;15207;42.182;24.308;2022-08-21T02:52:53;21.85;;;10.02;;
27839;SDS011;15207;42.182;24.308;2022-08-21T02:55:20;20.10;;;10.05;;
27839;SDS011;15207;42.182;24.308;2022-08-21T02:57:47;21.70;;;10.30;;
27839;SDS011;15207;42.182;24.308;2022-08-21T03:00:13;18.67;;;10.38;;
27839;SDS011;15207;42.182;24.308;2022-08-21T03:02:40;23.05;;;10.07;;
27839;SDS011;15207;42.182;24.308;2022-08-21T03:05:06;16.70;;;9.40;;
27839;SDS011;15207;42.182;24.308;2022-08-21T03:07:33;19.70;;;9.15;;
27839;SDS011;15207;42.182;24.308;2022-08-21T03:09:59;16.30;;;9.70;;
27839;SDS011;15207;42.182;24.308;2022-08-21T03:12:25;22.15;;;10.40;;
27839;SDS011;15207;42.182;24.308;2022-08-21T03:17:16;25.60;;;10.50;;
27839;SDS011;15207;42.182;24.308;2022-08-21T03:19:42;24.60;;;10.30;;
27839;SDS011;15207;42.182;24.308;2022-08-21T03:24:33;19.45;;;10.52;;
27839;SDS011;15207;42.182;24.308;2022-08-21T03:26:59;23.70;;;10.50;;
27839;SDS011;15207;42.182;24.308;2022-08-21T03:29:24;24.60;;;10.83;;
27839;SDS011;15207;42.182;24.308;2022-08-21T03:31:50;18.47;;;11.03;;
27839;SDS011;15207;42.182;24.308;2022-08-21T03:34:18;24.90;;;12.10;;
27839;SDS011;15207;42.182;24.308;2022-08-21T03:36:44;22.42;;;11.13;;
27839;SDS011;15207;42.182;24.308;2022-08-21T03:39:09;22.20;;;10.45;;
27839;SDS011;15207;42.182;24.308;2022-08-21T03:41:35;23.80;;;11.00;;
27839;SDS011;15207;42.182;24.308;2022-08-21T03:44:01;20.98;;;10.57;;
27839;SDS011;15207;42.182;24.308;2022-08-21T03:46:28;20.95;;;10.85;;
27839;SDS011;15207;42.182;24.308;2022-08-21T03:51:20;19.45;;;10.70;;
27839;SDS011;15207;42.182;24.308;2022-08-21T03:53:46;17.80;;;11.00;;
27839;SDS011;15207;42.182;24.308;2022-08-21T03:56:11;22.00;;;9.70;;
27839;SDS011;15207;42.182;24.308;2022-08-21T03:58:37;18.40;;;9.40;;
27839;SDS011;15207;42.182;24.308;2022-08-21T04:01:03;17.85;;;9.30;;
27839;SDS011;15207;42.182;24.308;2022-08-21T04:03:31;20.40;;;9.32;;
27839;SDS011;15207;42.182;24.308;2022-08-21T04:05:59;20.48;;;10.00;;
27839;SDS011;15207;42.182;24.308;2022-08-21T04:08:24;18.95;;;10.10;;
27839;SDS011;15207;42.182;24.308;2022-08-21T04:10:51;19.17;;;10.20;;
27839;SDS011;15207;42.182;24.308;2022-08-21T04:13:19;18.02;;;10.18;;
27839;SDS011;15207;42.182;24.308;2022-08-21T04:15:45;18.40;;;10.10;;
27839;SDS011;15207;42.182;24.308;2022-08-21T04:18:10;17.10;;;8.83;;
27839;SDS011;15207;42.182;24.308;2022-08-21T04:20:36;16.35;;;9.90;;
27839;SDS011;15207;42.182;24.308;2022-08-21T04:23:03;19.65;;;10.98;;
27839;SDS011;15207;42.182;24.308;2022-08-21T04:25:29;15.45;;;8.95;;
27839;SDS011;15207;42.182;24.308;2022-08-21T04:27:54;21.20;;;9.05;;
27839;SDS011;15207;42.182;24.308;2022-08-21T04:30:20;18.35;;;9.20;;
27839;SDS011;15207;42.182;24.308;2022-08-21T04:32:47;18.40;;;9.13;;
27839;SDS011;15207;42.182;24.308;2022-08-21T04:35:14;16.10;;;9.00;;
27839;SDS011;15207;42.182;24.308;2022-08-21T04:42:40;19.85;;;8.18;;
27839;SDS011;15207;42.182;24.308;2022-08-21T04:45:08;17.20;;;8.60;;
27839;SDS011;15207;42.182;24.308;2022-08-21T04:47:34;18.50;;;8.30;;
27839;SDS011;15207;42.182;24.308;2022-08-21T04:49:59;17.60;;;8.57;;
27839;SDS011;15207;42.182;24.308;2022-08-21T04:52:25;25.23;;;9.80;;
27839;SDS011;15207;42.182;24.308;2022-08-21T04:54:50;15.15;;;9.07;;
27839;SDS011;15207;42.182;24.308;2022-08-21T04:59:44;15.60;;;9.40;;
27839;SDS011;15207;42.182;24.308;2022-08-21T05:02:12;16.53;;;8.43;;
27839;SDS011;15207;42.182;24.308;2022-08-21T05:07:10;16.80;;;8.80;;
27839;SDS011;15207;42.182;24.308;2022-08-21T05:09:39;17.90;;;8.60;;
27839;SDS011;15207;42.182;24.308;2022-08-21T05:12:06;15.85;;;10.10;;
27839;SDS011;15207;42.182;24.308;2022-08-21T05:14:32;15.07;;;9.13;;
27839;SDS011;15207;42.182;24.308;2022-08-21T05:16:58;19.80;;;10.50;;
27839;SDS011;15207;42.182;24.308;2022-08-21T05:19:24;15.30;;;9.80;;
27839;SDS011;15207;42.182;24.308;2022-08-21T05:21:51;15.53;;;9.23;;
27839;SDS011;15207;42.182;24.308;2022-08-21T05:24:16;19.77;;;10.38;;
27839;SDS011;15207;42.182;24.308;2022-08-21T05:26:43;17.40;;;9.90;;
27839;SDS011;15207;42.182;24.308;2022-08-21T05:29:09;14.60;;;9.30;;
27839;SDS011;15207;42.182;24.308;2022-08-21T05:31:35;19.60;;;10.35;;
27839;SDS011;15207;42.182;24.308;2022-08-21T05:34:01;14.25;;;9.50;;
27839;SDS011;15207;42.182;24.308;2022-08-21T05:36:27;18.63;;;10.73;;
27839;SDS011;15207;42.182;24.308;2022-08-21T05:38:53;17.25;;;9.95;;
27839;SDS011;15207;42.182;24.308;2022-08-21T05:41:19;18.52;;;10.32;;
27839;SDS011;15207;42.182;24.308;2022-08-21T05:51:06;17.10;;;9.80;;
27839;SDS011;15207;42.182;24.308;2022-08-21T05:53:36;19.80;;;9.83;;
27839;SDS011;15207;42.182;24.308;2022-08-21T05:58:30;21.75;;;10.25;;
27839;SDS011;15207;42.182;24.308;2022-08-21T06:03:24;21.30;;;10.40;;
27839;SDS011;15207;42.182;24.308;2022-08-21T06:05:52;20.20;;;10.10;;
27839;SDS011;15207;42.182;24.308;2022-08-21T06:08:19;27.30;;;12.00;;
27839;SDS011;15207;42.182;24.308;2022-08-21T06:10:46;19.10;;;11.40;;
27839;SDS011;15207;42.182;24.308;2022-08-21T06:13:14;19.55;;;10.90;;
27839;SDS011;15207;42.182;24.308;2022-08-21T06:15:40;21.40;;;10.88;;
27839;SDS011;15207;42.182;24.308;2022-08-21T06:18:06;17.60;;;10.10;;
27839;SDS011;15207;42.182;24.308;2022-08-21T06:20:31;14.77;;;9.85;;
27839;SDS011;15207;42.182;24.308;2022-08-21T06:25:23;20.30;;;9.45;;
27839;SDS011;15207;42.182;24.308;2022-08-21T06:27:49;20.15;;;10.35;;
27839;SDS011;15207;42.182;24.308;2022-08-21T06:30:15;17.00;;;9.50;;
27839;SDS011;15207;42.182;24.308;2022-08-21T06:32:41;15.10;;;8.70;;
27839;SDS011;15207;42.182;24.308;2022-08-21T06:35:07;14.40;;;9.55;;
27839;SDS011;15207;42.182;24.308;2022-08-21T06:37:33;16.90;;;9.70;;
27839;SDS011;15207;42.182;24.308;2022-08-21T06:39:59;16.88;;;10.93;;
27839;SDS011;15207;42.182;24.308;2022-08-21T06:42:24;18.20;;;10.60;;
27839;SDS011;15207;42.182;24.308;2022-08-21T06:47:17;18.73;;;10.60;;
27839;SDS011;15207;42.182;24.308;2022-08-21T06:52:09;21.70;;;10.00;;
27839;SDS011;15207;42.182;24.308;2022-08-21T06:54:36;17.00;;;10.40;;
27839;SDS011;15207;42.182;24.308;2022-08-21T06:57:02;23.40;;;11.20;;
27839;SDS011;15207;42.182;24.308;2022-08-21T06:59:28;22.85;;;11.15;;
27839;SDS011;15207;42.182;24.308;2022-08-21T07:01:53;17.30;;;11.00;;
27839;SDS011;15207;42.182;24.308;2022-08-21T07:04:19;16.80;;;11.50;;
27839;SDS011;15207;42.182;24.308;2022-08-21T07:06:45;17.45;;;11.70;;
27839;SDS011;15207;42.182;24.308;2022-08-21T07:09:11;19.48;;;11.75;;
27839;SDS011;15207;42.182;24.308;2022-08-21T07:11:37;14.10;;;10.05;;
27839;SDS011;15207;42.182;24.308;2022-08-21T07:14:03;19.90;;;11.30;;
27839;SDS011;15207;42.182;24.308;2022-08-21T07:16:29;18.75;;;11.07;;
27839;SDS011;15207;42.182;24.308;2022-08-21T07:18:55;19.20;;;10.60;;
27839;SDS011;15207;42.182;24.308;2022-08-21T07:21:20;20.30;;;10.80;;
27839;SDS011;15207;42.182;24.308;2022-08-21T07:23:48;18.20;;;12.10;;
27839;SDS011;15207;42.182;24.308;2022-08-21T07:28:42;16.10;;;10.50;;
27839;SDS011;15207;42.182;24.308;2022-08-21T07:31:08;21.20;;;9.80;;
27839;SDS011;15207;42.182;24.308;2022-08-21T07:33:35;22.20;;;10.10;;
27839;SDS011;15207;42.182;24.308;2022-08-21T07:36:01;15.70;;;10.40;;
27839;SDS011;15207;42.182;24.308;2022-08-21T07:38:28;14.85;;;10.20;;
27839;SDS011;15207;42.182;24.308;2022-08-21T07:40:54;15.80;;;10.50;;
27839;SDS011;15207;42.182;24.308;2022-08-21T07:43:23;16.90;;;9.80;;
27839;SDS011;15207;42.182;24.308;2022-08-21T07:45:49;15.77;;;8.63;;
27839;SDS011;15207;42.182;24.308;2022-08-21T07:48:15;19.67;;;9.53;;
27839;SDS011;15207;42.182;24.308;2022-08-21T07:50:41;14.95;;;8.60;;
27839;SDS011;15207;42.182;24.308;2022-08-21T07:53:07;15.75;;;8.90;;
27839;SDS011;15207;42.182;24.308;2022-08-21T07:55:33;15.80;;;9.70;;
27839;SDS011;15207;42.182;24.308;2022-08-21T07:57:59;18.90;;;9.40;;
27839;SDS011;15207;42.182;24.308;2022-08-21T08:00:25;19.10;;;10.10;;
27839;SDS011;15207;42.182;24.308;2022-08-21T08:02:53;22.30;;;9.70;;
27839;SDS011;15207;42.182;24.308;2022-08-21T08:05:20;21.65;;;10.55;;
27839;SDS011;15207;42.182;24.308;2022-08-21T08:07:48;16.52;;;10.18;;
27839;SDS011;15207;42.182;24.308;2022-08-21T08:10:14;17.67;;;10.07;;
27839;SDS011;15207;42.182;24.308;2022-08-21T08:12:41;15.60;;;10.03;;
27839;SDS011;15207;42.182;24.308;2022-08-21T08:15:13;15.00;;;9.25;;
27839;SDS011;15207;42.182;24.308;2022-08-21T08:17:41;20.30;;;9.60;;
27839;SDS011;15207;42.182;24.308;2022-08-21T08:20:07;19.00;;;10.03;;
27839;SDS011;15207;42.182;24.308;2022-08-21T08:25:01;16.27;;;8.90;;
27839;SDS011;15207;42.182;24.308;2022-08-21T08:27:27;13.03;;;8.47;;
27839;SDS011;15207;42.182;24.308;2022-08-21T08:29:53;14.82;;;9.15;;
27839;SDS011;15207;42.182;24.308;2022-08-21T08:32:19;19.73;;;8.98;;
27839;SDS011;15207;42.182;24.308;2022-08-21T08:34:45;18.90;;;8.88;;
27839;SDS011;15207;42.182;24.308;2022-08-21T08:37:12;15.18;;;9.55;;
27839;SDS011;15207;42.182;24.308;2022-08-21T08:39:37;13.30;;;8.05;;
27839;SDS011;15207;42.182;24.308;2022-08-21T08:42:07;13.60;;;8.30;;
27839;SDS011;15207;42.182;24.308;2022-08-21T08:44:37;14.20;;;7.95;;
27839;SDS011;15207;42.182;24.308;2022-08-21T08:47:03;11.25;;;7.45;;
27839;SDS011;15207;42.182;24.308;2022-08-21T08:49:32;16.77;;;8.37;;
27839;SDS011;15207;42.182;24.308;2022-08-21T08:52:07;13.53;;;7.80;;
27839;SDS011;15207;42.182;24.308;2022-08-21T08:54:48;20.50;;;7.60;;
27839;SDS011;15207;42.182;24.308;2022-08-21T08:57:23;12.70;;;7.30;;
27839;SDS011;15207;42.182;24.308;2022-08-21T08:59:52;15.68;;;7.57;;
27839;SDS011;15207;42.182;24.308;2022-08-21T09:02:21;17.50;;;8.40;;
27839;SDS011;15207;42.182;24.308;2022-08-21T09:04:52;22.63;;;9.23;;
27839;SDS011;15207;42.182;24.308;2022-08-21T09:22:24;22.25;;;8.20;;
27839;SDS011;15207;42.182;24.308;2022-08-21T09:24:56;25.63;;;8.97;;
27839;SDS011;15207;42.182;24.308;2022-08-21T09:27:36;16.70;;;9.40;;
27839;SDS011;15207;42.182;24.308;2022-08-21T09:30:03;19.60;;;9.07;;
27839;SDS011;15207;42.182;24.308;2022-08-21T09:32:31;16.10;;;8.80;;
27839;SDS011;15207;42.182;24.308;2022-08-21T09:35:00;16.52;;;8.73;;
27839;SDS011;15207;42.182;24.308;2022-08-21T09:37:27;22.95;;;9.90;;
27839;SDS011;15207;42.182;24.308;2022-08-21T09:39:54;18.83;;;10.20;;
27839;SDS011;15207;42.182;24.308;2022-08-21T09:42:30;17.45;;;10.20;;
27839;SDS011;15207;42.182;24.308;2022-08-21T09:45:08;20.98;;;10.40;;
27839;SDS011;15207;42.182;24.308;2022-08-21T09:47:40;19.40;;;10.00;;
27839;SDS011;15207;42.182;24.308;2022-08-21T09:52:33;16.75;;;9.75;;
27839;SDS011;15207;42.182;24.308;2022-08-21T09:54:59;20.30;;;9.80;;
27839;SDS011;15207;42.182;24.308;2022-08-21T09:57:26;24.60;;;9.32;;
27839;SDS011;15207;42.182;24.308;2022-08-21T10:00:45;21.40;;;9.10;;
27839;SDS011;15207;42.182;24.308;2022-08-21T10:05:20;20.25;;;8.30;;
27839;SDS011;15207;42.182;24.308;2022-08-21T10:07:48;18.85;;;8.20;;
27839;SDS011;15207;42.182;24.308;2022-08-21T10:13:03;13.15;;;6.75;;
27839;SDS011;15207;42.182;24.308;2022-08-21T10:18:40;17.30;;;6.93;;
27839;SDS011;15207;42.182;24.308;2022-08-21T10:43:04;14.85;;;7.00;;
27839;SDS011;15207;42.182;24.308;2022-08-21T10:45:55;13.75;;;6.00;;
27839;SDS011;15207;42.182;24.308;2022-08-21T10:56:56;12.50;;;7.60;;
27839;SDS011;15207;42.182;24.308;2022-08-21T11:02:19;18.30;;;10.40;;
27839;SDS011;15207;42.182;24.308;2022-08-21T11:05:14;21.02;;;12.18;;
27839;SDS011;15207;42.182;24.308;2022-08-21T11:07:46;17.60;;;9.60;;
27839;SDS011;15207;42.182;24.308;2022-08-21T11:12:50;11.50;;;7.00;;
27839;SDS011;15207;42.182;24.308;2022-08-21T11:20:30;16.80;;;9.60;;
27839;SDS011;15207;42.182;24.308;2022-08-21T11:23:23;21.40;;;10.65;;
27839;SDS011;15207;42.182;24.308;2022-08-21T11:25:56;26.70;;;10.90;;
27839;SDS011;15207;42.182;24.308;2022-08-21T11:28:41;19.15;;;11.20;;
27839;SDS011;15207;42.182;24.308;2022-08-21T11:33:59;16.97;;;8.90;;
27839;SDS011;15207;42.182;24.308;2022-08-21T11:36:55;17.40;;;8.50;;
27839;SDS011;15207;42.182;24.308;2022-08-21T11:42:16;12.80;;;8.67;;
27839;SDS011;15207;42.182;24.308;2022-08-21T11:47:43;15.40;;;9.00;;
27839;SDS011;15207;42.182;24.308;2022-08-21T11:50:18;16.80;;;9.90;;
27839;SDS011;15207;42.182;24.308;2022-08-21T11:53:08;11.95;;;6.80;;
27839;SDS011;15207;42.182;24.308;2022-08-21T11:55:44;13.50;;;8.35;;
27839;SDS011;15207;42.182;24.308;2022-08-21T12:03:24;16.35;;;7.40;;
27839;SDS011;15207;42.182;24.308;2022-08-21T12:06:05;13.90;;;8.00;;
27839;SDS011;15207;42.182;24.308;2022-08-21T12:08:35;13.25;;;8.05;;
27839;SDS011;15207;42.182;24.308;2022-08-21T12:13:51;15.40;;;8.50;;
27839;SDS011;15207;42.182;24.308;2022-08-21T12:16:31;17.90;;;8.50;;
27839;SDS011;15207;42.182;24.308;2022-08-21T12:19:06;12.85;;;7.20;;
27839;SDS011;15207;42.182;24.308;2022-08-21T12:21:54;12.70;;;7.50;;
27839;SDS011;15207;42.182;24.308;2022-08-21T12:26:54;12.00;;;6.55;;
27839;SDS011;15207;42.182;24.308;2022-08-21T12:29:28;18.20;;;6.00;;
27839;SDS011;15207;42.182;24.308;2022-08-21T12:31:58;9.80;;;6.00;;
27839;SDS011;15207;42.182;24.308;2022-08-21T12:39:29;12.30;;;6.10;;
27839;SDS011;15207;42.182;24.308;2022-08-21T12:44:46;12.35;;;6.45;;
27839;SDS011;15207;42.182;24.308;2022-08-21T12:52:35;10.80;;;6.55;;
27839;SDS011;15207;42.182;24.308;2022-08-21T12:55:06;11.40;;;6.40;;
27839;SDS011;15207;42.182;24.308;2022-08-21T12:57:39;14.37;;;6.87;;
27839;SDS011;15207;42.182;24.308;2022-08-21T13:00:06;17.90;;;7.00;;
27839;SDS011;15207;42.182;24.308;2022-08-21T13:02:42;13.55;;;6.70;;
27839;SDS011;15207;42.182;24.308;2022-08-21T13:05:12;15.60;;;6.50;;
27839;SDS011;15207;42.182;24.308;2022-08-21T13:07:44;15.80;;;6.80;;
27839;SDS011;15207;42.182;24.308;2022-08-21T13:10:23;16.00;;;6.90;;
27839;SDS011;15207;42.182;24.308;2022-08-21T13:15:25;12.90;;;6.00;;
27839;SDS011;15207;42.182;24.308;2022-08-21T13:17:53;11.38;;;6.80;;
27839;SDS011;15207;42.182;24.308;2022-08-21T13:22:48;11.25;;;6.30;;
27839;SDS011;15207;42.182;24.308;2022-08-21T13:25:14;10.83;;;6.63;;
27839;SDS011;15207;42.182;24.308;2022-08-21T13:27:42;12.05;;;6.40;;
27839;SDS011;15207;42.182;24.308;2022-08-21T13:30:20;13.10;;;6.35;;
27839;SDS011;15207;42.182;24.308;2022-08-21T13:37:46;16.05;;;6.53;;
27839;SDS011;15207;42.182;24.308;2022-08-21T13:40:20;12.38;;;6.30;;
27839;SDS011;15207;42.182;24.308;2022-08-21T13:42:50;11.90;;;6.40;;
27839;SDS011;15207;42.182;24.308;2022-08-21T13:47:51;14.95;;;6.68;;
27839;SDS011;15207;42.182;24.308;2022-08-21T13:50:19;13.30;;;6.63;;
27839;SDS011;15207;42.182;24.308;2022-08-21T13:52:48;13.20;;;6.93;;
27839;SDS011;15207;42.182;24.308;2022-08-21T13:55:39;13.05;;;6.45;;
27839;SDS011;15207;42.182;24.308;2022-08-21T13:58:07;14.23;;;6.97;;
27839;SDS011;15207;42.182;24.308;2022-08-21T14:00:44;12.15;;;7.50;;
27839;SDS011;15207;42.182;24.308;2022-08-21T14:03:30;15.45;;;7.70;;
27839;SDS011;15207;42.182;24.308;2022-08-21T14:05:58;16.45;;;7.50;;
27839;SDS011;15207;42.182;24.308;2022-08-21T14:08:29;12.70;;;6.90;;
27839;SDS011;15207;42.182;24.308;2022-08-21T14:13:28;13.45;;;6.85;;
27839;SDS011;15207;42.182;24.308;2022-08-21T14:15:59;10.30;;;6.30;;
27839;SDS011;15207;42.182;24.308;2022-08-21T14:18:27;12.40;;;6.43;;
27839;SDS011;15207;42.182;24.308;2022-08-21T14:21:06;12.10;;;6.25;;
27839;SDS011;15207;42.182;24.308;2022-08-21T14:23:34;15.50;;;6.40;;
27839;SDS011;15207;42.182;24.308;2022-08-21T14:26:00;12.50;;;6.10;;
27839;SDS011;15207;42.182;24.308;2022-08-21T14:28:32;14.75;;;7.05;;
27839;SDS011;15207;42.182;24.308;2022-08-21T14:31:16;9.35;;;6.32;;
27839;SDS011;15207;42.182;24.308;2022-08-21T14:36:09;14.57;;;6.30;;
27839;SDS011;15207;42.182;24.308;2022-08-21T14:38:36;14.60;;;7.10;;
27839;SDS011;15207;42.182;24.308;2022-08-21T14:43:41;16.00;;;7.50;;
27839;SDS011;15207;42.182;24.308;2022-08-21T14:46:07;16.00;;;7.65;;
27839;SDS011;15207;42.182;24.308;2022-08-21T14:50:58;15.20;;;7.70;;
27839;SDS011;15207;42.182;24.308;2022-08-21T14:53:24;16.67;;;7.20;;
27839;SDS011;15207;42.182;24.308;2022-08-21T14:58:31;14.95;;;6.90;;
27839;SDS011;15207;42.182;24.308;2022-08-21T15:00:57;13.80;;;6.90;;
27839;SDS011;15207;42.182;24.308;2022-08-21T15:03:23;15.43;;;7.38;;
27839;SDS011;15207;42.182;24.308;2022-08-21T15:05:50;14.63;;;7.13;;
27839;SDS011;15207;42.182;24.308;2022-08-21T15:08:16;20.20;;;7.50;;
27839;SDS011;15207;42.182;24.308;2022-08-21T15:10:42;19.65;;;6.97;;
27839;SDS011;15207;42.182;24.308;2022-08-21T15:13:08;17.90;;;7.20;;
27839;SDS011;15207;42.182;24.308;2022-08-21T15:15:41;18.67;;;7.25;;
27839;SDS011;15207;42.182;24.308;2022-08-21T15:18:09;17.55;;;7.15;;
27839;SDS011;15207;42.182;24.308;2022-08-21T15:20:35;16.90;;;8.27;;
27839;SDS011;15207;42.182;24.308;2022-08-21T15:25:27;14.93;;;7.30;;
27839;SDS011;15207;42.182;24.308;2022-08-21T15:35:10;16.95;;;8.75;;
27839;SDS011;15207;42.182;24.308;2022-08-21T15:37:35;14.10;;;8.40;;
27839;SDS011;15207;42.182;24.308;2022-08-21T15:40:02;15.45;;;8.35;;
27839;SDS011;15207;42.182;24.308;2022-08-21T15:42:29;19.63;;;9.02;;
27839;SDS011;15207;42.182;24.308;2022-08-21T15:44:55;17.50;;;8.63;;
27839;SDS011;15207;42.182;24.308;2022-08-21T15:47:24;17.60;;;8.67;;
27839;SDS011;15207;42.182;24.308;2022-08-21T15:49:53;18.17;;;9.20;;
27839;SDS011;15207;42.182;24.308;2022-08-21T15:52:19;16.40;;;8.70;;
27839;SDS011;15207;42.182;24.308;2022-08-21T15:54:46;18.92;;;9.02;;
27839;SDS011;15207;42.182;24.308;2022-08-21T15:57:13;15.70;;;9.10;;
27839;SDS011;15207;42.182;24.308;2022-08-21T15:59:45;15.10;;;9.30;;
27839;SDS011;15207;42.182;24.308;2022-08-21T16:02:16;16.13;;;8.77;;
27839;SDS011;15207;42.182;24.308;2022-08-21T16:04:45;18.47;;;9.27;;
27839;SDS011;15207;42.182;24.308;2022-08-21T16:07:10;18.03;;;8.93;;
27839;SDS011;15207;42.182;24.308;2022-08-21T16:09:36;21.20;;;9.35;;
27839;SDS011;15207;42.182;24.308;2022-08-21T16:12:03;20.10;;;9.80;;
27839;SDS011;15207;42.182;24.308;2022-08-21T16:14:30;17.85;;;10.45;;
27839;SDS011;15207;42.182;24.308;2022-08-21T16:16:57;18.30;;;9.53;;
27839;SDS011;15207;42.182;24.308;2022-08-21T16:19:23;26.80;;;10.60;;
27839;SDS011;15207;42.182;24.308;2022-08-21T16:21:50;17.50;;;9.45;;
27839;SDS011;15207;42.182;24.308;2022-08-21T16:24:15;24.33;;;9.48;;
27839;SDS011;15207;42.182;24.308;2022-08-21T16:29:07;20.20;;;9.00;;
27839;SDS011;15207;42.182;24.308;2022-08-21T16:33:59;18.63;;;9.68;;
27839;SDS011;15207;42.182;24.308;2022-08-21T16:36:26;19.80;;;10.10;;
27839;SDS011;15207;42.182;24.308;2022-08-21T16:38:52;20.75;;;11.00;;
27839;SDS011;15207;42.182;24.308;2022-08-21T16:41:22;20.30;;;10.60;;
27839;SDS011;15207;42.182;24.308;2022-08-21T16:43:50;18.33;;;10.00;;
27839;SDS011;15207;42.182;24.308;2022-08-21T16:46:16;19.83;;;9.68;;
27839;SDS011;15207;42.182;24.308;2022-08-21T16:48:43;17.20;;;9.25;;
27839;SDS011;15207;42.182;24.308;2022-08-21T16:51:09;20.38;;;10.18;;
27839;SDS011;15207;42.182;24.308;2022-08-21T16:53:36;19.85;;;10.85;;
27839;SDS011;15207;42.182;24.308;2022-08-21T16:56:03;20.20;;;10.90;;
27839;SDS011;15207;42.182;24.308;2022-08-21T16:58:30;20.40;;;11.38;;
27839;SDS011;15207;42.182;24.308;2022-08-21T17:00:58;19.40;;;10.15;;
27839;SDS011;15207;42.182;24.308;2022-08-21T17:05:54;21.20;;;10.90;;
27839;SDS011;15207;42.182;24.308;2022-08-21T17:08:20;28.90;;;10.60;;
27839;SDS011;15207;42.182;24.308;2022-08-21T17:10:46;26.30;;;10.75;;
27839;SDS011;15207;42.182;24.308;2022-08-21T17:13:13;20.42;;;9.60;;
27839;SDS011;15207;42.182;24.308;2022-08-21T17:15:39;23.80;;;11.90;;
27839;SDS011;15207;42.182;24.308;2022-08-21T17:18:06;23.25;;;10.27;;
27839;SDS011;15207;42.182;24.308;2022-08-21T17:20:34;19.40;;;10.63;;
27839;SDS011;15207;42.182;24.308;2022-08-21T17:23:01;19.23;;;10.07;;
27839;SDS011;15207;42.182;24.308;2022-08-21T17:25:26;22.58;;;10.52;;
27839;SDS011;15207;42.182;24.308;2022-08-21T17:27:52;20.70;;;10.60;;
27839;SDS011;15207;42.182;24.308;2022-08-21T17:30:19;19.20;;;10.23;;
27839;SDS011;15207;42.182;24.308;2022-08-21T17:32:46;18.70;;;10.40;;
27839;SDS011;15207;42.182;24.308;2022-08-21T17:37:41;16.70;;;9.93;;
27839;SDS011;15207;42.182;24.308;2022-08-21T17:40:08;21.35;;;10.65;;
27839;SDS011;15207;42.182;24.308;2022-08-21T17:42:38;24.23;;;10.90;;
27839;SDS011;15207;42.182;24.308;2022-08-21T17:45:11;19.65;;;10.40;;
27839;SDS011;15207;42.182;24.308;2022-08-21T17:52:33;22.60;;;10.95;;
27839;SDS011;15207;42.182;24.308;2022-08-21T17:55:00;28.45;;;10.85;;
27839;SDS011;15207;42.182;24.308;2022-08-21T17:57:25;20.05;;;10.68;;